createdAt,value
2018-09-05T00:02:18.339Z,20.20
2018-09-05T00:05:22.612Z,20.20
2018-09-05T00:08:26.813Z,20.10
2018-09-05T00:11:31.278Z,20.10
2018-09-05T00:14:36.275Z,20.10
2018-09-05T00:17:40.500Z,20.00
2018-09-05T00:20:44.812Z,20.00
2018-09-05T00:23:49.282Z,19.90
2018-09-05T00:26:53.474Z,19.90
2018-09-05T00:29:59.623Z,20.00
2018-09-05T00:33:07.394Z,20.00
2018-09-05T00:36:13.530Z,20.00
2018-09-05T00:39:17.976Z,20.00
2018-09-05T00:42:22.364Z,20.00
2018-09-05T00:45:27.069Z,20.00
2018-09-05T00:48:31.398Z,20.00
2018-09-05T00:51:35.761Z,20.00
2018-09-05T00:54:39.941Z,20.00
2018-09-05T00:57:44.177Z,20.00
2018-09-05T01:00:48.382Z,20.00
2018-09-05T01:03:52.700Z,20.10
2018-09-05T01:06:56.878Z,20.10
2018-09-05T01:10:01.297Z,20.10
2018-09-05T01:13:05.611Z,20.10
2018-09-05T01:16:09.806Z,20.00
2018-09-05T01:19:14.109Z,20.10
2018-09-05T01:22:18.432Z,20.10
2018-09-05T01:25:22.753Z,20.00
2018-09-05T01:28:27.078Z,20.00
2018-09-05T01:31:31.475Z,19.90
2018-09-05T01:34:35.867Z,19.80
2018-09-05T01:37:40.034Z,19.70
2018-09-05T01:40:44.327Z,19.70
2018-09-05T01:43:48.515Z,19.70
2018-09-05T01:46:52.986Z,19.70
2018-09-05T01:49:57.318Z,19.70
2018-09-05T01:53:01.598Z,19.70
2018-09-05T01:56:05.860Z,19.70
2018-09-05T01:59:10.125Z,19.70
2018-09-05T02:02:14.798Z,19.60
2018-09-05T02:05:18.932Z,19.60
2018-09-05T02:08:23.100Z,19.60
2018-09-05T02:11:27.449Z,19.60
2018-09-05T02:14:31.688Z,19.60
2018-09-05T02:17:36.042Z,19.60
2018-09-05T02:20:40.537Z,19.60
2018-09-05T02:23:44.711Z,19.70
2018-09-05T02:26:49.035Z,19.70
2018-09-05T02:29:53.423Z,19.70
2018-09-05T02:32:57.828Z,19.60
2018-09-05T02:36:01.929Z,19.60
2018-09-05T02:39:08.883Z,19.60
2018-09-05T02:42:13.206Z,19.60
2018-09-05T02:45:17.562Z,19.60
2018-09-05T02:48:21.889Z,19.60
2018-09-05T02:51:26.104Z,19.60
2018-09-05T02:54:30.348Z,19.60
2018-09-05T02:57:34.395Z,19.60
2018-09-05T03:00:38.517Z,19.60
2018-09-05T03:03:42.635Z,19.50
2018-09-05T03:06:46.835Z,19.50
2018-09-05T03:09:51.139Z,19.50
2018-09-05T03:12:55.357Z,19.40
2018-09-05T03:15:59.718Z,19.50
2018-09-05T03:19:04.335Z,19.50
2018-09-05T03:22:08.393Z,19.50
2018-09-05T03:25:12.869Z,19.50
2018-09-05T03:28:17.235Z,19.60
2018-09-05T03:31:21.570Z,19.60
2018-09-05T03:34:26.139Z,19.60
2018-09-05T03:37:30.492Z,19.60
2018-09-05T03:40:34.757Z,19.60
2018-09-05T03:43:38.919Z,19.50
2018-09-05T03:46:43.321Z,19.60
2018-09-05T03:49:47.680Z,19.50
2018-09-05T03:52:51.985Z,19.60
2018-09-05T03:55:56.691Z,19.50
2018-09-05T03:59:00.910Z,19.50
2018-09-05T04:02:05.195Z,19.50
2018-09-05T04:05:09.487Z,19.60
2018-09-05T04:08:13.861Z,19.60
2018-09-05T04:11:18.192Z,19.50
2018-09-05T04:14:22.489Z,19.50
2018-09-05T04:17:27.754Z,19.50
2018-09-05T04:20:32.324Z,19.50
2018-09-05T04:23:41.569Z,19.50
2018-09-05T04:26:45.775Z,19.50
2018-09-05T04:29:50.316Z,19.60
2018-09-05T04:32:54.633Z,19.60
2018-09-05T04:35:58.975Z,19.60
2018-09-05T04:39:03.368Z,19.60
2018-09-05T04:42:07.478Z,19.60
2018-09-05T04:45:11.647Z,19.50
2018-09-05T04:48:15.965Z,19.60
2018-09-05T04:51:20.150Z,19.50
2018-09-05T04:54:24.464Z,19.60
2018-09-05T04:57:28.843Z,19.60
2018-09-05T05:00:33.111Z,19.60
2018-09-05T05:03:37.417Z,19.60
2018-09-05T05:06:41.750Z,19.50
2018-09-05T05:09:46.000Z,19.40
2018-09-05T05:12:50.376Z,19.50
2018-09-05T05:15:54.622Z,19.50
2018-09-05T05:18:58.962Z,19.50
2018-09-05T05:22:03.319Z,19.50
2018-09-05T05:25:07.744Z,19.60
2018-09-05T05:28:12.041Z,19.60
2018-09-05T05:31:16.452Z,19.70
2018-09-05T05:34:20.985Z,19.70
2018-09-05T05:37:25.310Z,19.70
2018-09-05T05:40:30.075Z,19.80
2018-09-05T05:43:34.384Z,19.90
2018-09-05T05:46:38.809Z,19.90
2018-09-05T05:49:43.107Z,20.00
2018-09-05T05:52:47.580Z,20.00
2018-09-05T05:55:51.849Z,20.00
2018-09-05T05:58:56.205Z,20.00
2018-09-05T06:02:00.660Z,20.10
2018-09-05T06:05:05.083Z,20.30
2018-09-05T06:08:09.365Z,20.40
2018-09-05T06:11:13.712Z,20.50
2018-09-05T06:14:17.782Z,20.60
2018-09-05T06:17:22.064Z,20.70
2018-09-05T06:20:26.271Z,20.80
2018-09-05T06:23:30.533Z,20.90
2018-09-05T06:26:34.913Z,21.10
2018-09-05T06:29:39.205Z,21.20
2018-09-05T06:32:43.518Z,21.20
2018-09-05T06:35:48.356Z,21.20
2018-09-05T06:38:52.803Z,21.20
2018-09-05T06:42:03.326Z,21.20
2018-09-05T06:45:07.714Z,21.20
2018-09-05T06:48:12.031Z,21.10
2018-09-05T06:51:16.645Z,21.10
2018-09-05T06:54:21.090Z,21.20
2018-09-05T06:57:25.584Z,21.30
2018-09-05T07:00:30.022Z,21.40
2018-09-05T07:03:34.274Z,21.50
2018-09-05T07:06:38.686Z,21.80
2018-09-05T07:09:43.190Z,22.10
2018-09-05T07:12:47.539Z,22.50
2018-09-05T07:15:51.822Z,22.80
2018-09-05T07:18:56.113Z,23.20
2018-09-05T07:22:00.554Z,24.00
2018-09-05T07:25:04.999Z,24.50
2018-09-05T07:28:09.280Z,24.70
2018-09-05T07:31:14.174Z,25.20
2018-09-05T07:34:18.643Z,28.10
2018-09-05T07:37:23.103Z,31.10
2018-09-05T07:40:27.271Z,33.40
2018-09-05T07:43:31.418Z,32.50
2018-09-05T07:46:35.573Z,31.10
2018-09-05T07:49:39.994Z,30.10
2018-09-05T07:52:44.327Z,29.50
2018-09-05T07:55:48.406Z,29.90
2018-09-05T07:58:52.769Z,30.80
2018-09-05T08:01:57.060Z,33.40
2018-09-05T08:05:01.333Z,36.30
2018-09-05T08:08:05.928Z,38.80
2018-09-05T08:11:10.322Z,40.00
2018-09-05T08:14:14.661Z,40.80
2018-09-05T08:17:19.142Z,41.30
2018-09-05T08:20:23.622Z,41.50
2018-09-05T08:23:28.491Z,41.30
2018-09-05T08:26:32.990Z,41.90
2018-09-05T08:29:37.411Z,43.60
2018-09-05T08:32:41.609Z,45.20
2018-09-05T08:35:46.262Z,45.60
2018-09-05T08:38:50.734Z,46.10
2018-09-05T08:41:55.039Z,45.70
2018-09-05T08:44:59.233Z,46.20
2018-09-05T08:48:03.589Z,46.90
2018-09-05T08:51:07.903Z,47.80
2018-09-05T08:54:12.051Z,48.40
2018-09-05T08:57:16.408Z,49.20
2018-09-05T09:00:20.982Z,48.50
2018-09-05T09:03:25.265Z,49.00
2018-09-05T09:06:29.470Z,50.10
2018-09-05T09:09:33.671Z,51.00
2018-09-05T09:12:38.874Z,51.50
2018-09-05T09:15:47.822Z,52.10
2018-09-05T09:18:52.412Z,52.10
2018-09-05T09:21:56.622Z,52.20
2018-09-05T09:25:00.869Z,52.40
2018-09-05T09:28:05.373Z,52.90
2018-09-05T09:31:09.803Z,53.30
2018-09-05T09:34:14.144Z,53.60
2018-09-05T09:37:18.463Z,53.60
2018-09-05T09:40:22.823Z,54.00
2018-09-05T09:43:27.475Z,53.80
2018-09-05T09:46:31.807Z,51.90
2018-09-05T09:49:35.962Z,50.40
2018-09-05T09:52:40.128Z,49.30
2018-09-05T09:55:44.475Z,47.80
2018-09-05T09:58:48.768Z,46.30
2018-09-05T10:01:58.165Z,44.90
2018-09-05T10:05:07.301Z,43.30
2018-09-05T10:08:16.806Z,41.60
2018-09-05T10:11:25.296Z,40.10
2018-09-05T10:14:32.854Z,39.00
2018-09-05T10:17:37.805Z,38.50
2018-09-05T10:20:41.989Z,37.70
2018-09-05T10:23:46.408Z,37.30
2018-09-05T10:27:18.568Z,36.30
2018-09-05T10:30:22.886Z,35.30
2018-09-05T10:33:27.042Z,34.60
2018-09-05T10:36:31.949Z,34.20
2018-09-05T10:39:36.303Z,33.40
2018-09-05T10:42:40.624Z,32.70
2018-09-05T10:45:44.760Z,32.20
2018-09-05T10:48:49.040Z,32.20
2018-09-05T10:51:56.312Z,31.90
2018-09-05T10:55:01.041Z,31.50
2018-09-05T10:58:05.778Z,31.30
2018-09-05T11:01:09.981Z,31.10
2018-09-05T11:04:14.819Z,31.00
2018-09-05T11:07:19.043Z,30.70
2018-09-05T11:10:23.447Z,30.50
2018-09-05T11:13:27.793Z,30.70
2018-09-05T11:16:32.187Z,31.10
2018-09-05T11:19:36.440Z,31.40
2018-09-05T11:22:41.135Z,31.50
2018-09-05T11:25:45.482Z,31.70
2018-09-05T11:28:49.862Z,32.10
2018-09-05T11:31:54.447Z,32.30
2018-09-05T11:34:58.710Z,32.40
2018-09-05T11:38:02.599Z,32.70
2018-09-05T11:41:06.756Z,32.90
2018-09-05T11:44:10.819Z,33.10
2018-09-05T11:47:14.934Z,33.20
2018-09-05T11:50:18.881Z,33.20
2018-09-05T11:53:22.751Z,32.90
2018-09-05T11:56:26.695Z,32.60
2018-09-05T11:59:30.642Z,32.30
2018-09-05T12:02:34.705Z,32.40
2018-09-05T12:05:38.635Z,32.50
2018-09-05T12:08:42.742Z,32.50
2018-09-05T12:11:46.772Z,32.60
2018-09-05T12:14:50.663Z,32.70
2018-09-05T12:17:54.554Z,32.80
2018-09-05T12:20:58.727Z,32.90
2018-09-05T12:24:02.670Z,32.60
2018-09-05T12:27:06.553Z,32.40
2018-09-05T12:30:10.511Z,32.30
2018-09-05T12:33:14.441Z,32.10
2018-09-05T12:36:18.353Z,32.00
2018-09-05T12:39:22.475Z,31.80
2018-09-05T12:42:26.475Z,31.50
2018-09-05T12:45:30.409Z,31.20
2018-09-05T12:48:34.346Z,30.90
2018-09-05T12:51:38.296Z,30.70
2018-09-05T12:54:42.390Z,30.60
2018-09-05T12:57:46.486Z,30.40
2018-09-05T13:00:50.682Z,30.30
2018-09-05T13:03:54.619Z,30.10
2018-09-05T13:06:58.586Z,30.10
2018-09-05T13:10:02.437Z,29.90
2018-09-05T13:13:06.565Z,29.50
2018-09-05T13:16:10.485Z,29.30
2018-09-05T13:19:14.567Z,29.40
2018-09-05T13:22:18.548Z,29.40
2018-09-05T13:25:22.470Z,29.20
2018-09-05T13:28:26.514Z,29.20
2018-09-05T13:31:30.413Z,29.50
2018-09-05T13:34:34.335Z,29.70
2018-09-05T13:37:38.492Z,29.80
2018-09-05T13:40:42.395Z,30.00
2018-09-05T13:43:46.456Z,30.10
2018-09-05T13:46:50.367Z,30.10
2018-09-05T13:49:54.314Z,30.30
2018-09-05T13:52:58.216Z,30.30
2018-09-05T13:56:02.355Z,30.10
2018-09-05T13:59:06.372Z,30.30
2018-09-05T14:02:10.266Z,30.40
2018-09-05T14:05:14.597Z,30.50
2018-09-05T14:08:18.462Z,30.60
2018-09-05T14:11:22.356Z,30.70
2018-09-05T14:14:26.660Z,30.60
2018-09-05T14:17:30.998Z,30.50
2018-09-05T14:20:35.328Z,30.50
2018-09-05T14:23:39.640Z,30.40
2018-09-05T14:26:43.912Z,30.20
2018-09-05T14:29:48.939Z,30.00
2018-09-05T14:32:53.394Z,29.90
2018-09-05T14:35:57.630Z,29.70
2018-09-05T14:39:02.124Z,29.70
2018-09-05T14:42:06.286Z,29.30
2018-09-05T14:45:10.723Z,29.10
2018-09-05T14:48:15.098Z,29.20
2018-09-05T14:51:19.443Z,28.90
2018-09-05T14:54:23.904Z,28.70
2018-09-05T14:57:28.564Z,28.70
2018-09-05T15:00:32.966Z,28.70
2018-09-05T15:03:37.303Z,28.70
2018-09-05T15:06:41.585Z,28.50
2018-09-05T15:09:45.906Z,28.40
2018-09-05T15:12:50.149Z,28.30
2018-09-05T15:15:54.594Z,28.20
2018-09-05T15:18:58.870Z,28.10
2018-09-05T15:22:03.081Z,28.10
2018-09-05T15:25:07.595Z,28.20
2018-09-05T15:28:12.090Z,28.20
2018-09-05T15:31:16.495Z,28.20
2018-09-05T15:34:21.139Z,28.20
2018-09-05T15:37:25.237Z,28.30
2018-09-05T15:40:29.590Z,28.30
2018-09-05T15:43:33.732Z,28.20
2018-09-05T15:46:37.973Z,28.20
2018-09-05T15:49:42.444Z,28.20
2018-09-05T15:52:46.701Z,28.30
2018-09-05T15:55:51.087Z,28.20
2018-09-05T15:58:55.331Z,28.10
2018-09-05T16:01:59.691Z,28.00
2018-09-05T16:05:04.202Z,27.90
2018-09-05T16:08:08.945Z,27.70
2018-09-05T16:11:13.407Z,27.40
2018-09-05T16:14:17.724Z,27.20
2018-09-05T16:17:21.992Z,27.10
2018-09-05T16:20:26.241Z,27.00
2018-09-05T16:23:30.673Z,26.90
2018-09-05T16:26:34.879Z,26.80
2018-09-05T16:29:39.654Z,26.80
2018-09-05T16:32:43.937Z,26.70
2018-09-05T16:35:48.402Z,26.70
2018-09-05T16:38:52.695Z,26.70
2018-09-05T16:41:57.111Z,26.70
2018-09-05T16:45:01.590Z,26.80
2018-09-05T16:48:05.993Z,26.60
2018-09-05T16:51:10.487Z,26.40
2018-09-05T16:54:14.994Z,26.30
2018-09-05T16:57:19.518Z,26.10
2018-09-05T17:00:23.871Z,26.10
2018-09-05T17:03:27.759Z,26.00
2018-09-05T17:06:32.230Z,25.90
2018-09-05T17:09:36.400Z,25.80
2018-09-05T17:12:40.887Z,25.60
2018-09-05T17:15:45.179Z,25.60
2018-09-05T17:18:49.567Z,25.50
2018-09-05T17:21:54.025Z,25.40
2018-09-05T17:24:57.975Z,25.30
2018-09-05T17:28:01.994Z,25.30
2018-09-05T17:31:06.856Z,25.20
2018-09-05T17:34:11.404Z,25.10
2018-09-05T17:37:15.674Z,25.10
2018-09-05T17:40:19.586Z,25.10
2018-09-05T17:43:23.536Z,25.00
2018-09-05T17:46:27.999Z,25.00
2018-09-05T17:49:32.312Z,24.90
2018-09-05T17:52:36.704Z,24.90
2018-09-05T17:55:41.177Z,24.80
2018-09-05T17:58:45.142Z,24.80
2018-09-05T18:01:49.755Z,24.80
2018-09-05T18:04:54.104Z,24.70
2018-09-05T18:07:58.496Z,24.60
2018-09-05T18:11:02.502Z,24.70
2018-09-05T18:14:06.761Z,24.70
2018-09-05T18:17:11.661Z,24.60
2018-09-05T18:20:16.568Z,24.60
2018-09-05T18:23:20.971Z,24.50
2018-09-05T18:26:25.404Z,24.40
2018-09-05T18:29:29.592Z,24.40
2018-09-05T18:32:39.778Z,24.30
2018-09-05T18:35:46.653Z,24.20
2018-09-05T18:38:50.730Z,24.10
2018-09-05T18:42:00.964Z,24.10
2018-09-05T18:45:07.010Z,24.00
2018-09-05T18:48:12.618Z,24.00
2018-09-05T18:51:17.322Z,24.00
2018-09-05T18:54:22.557Z,24.00
2018-09-05T18:57:27.677Z,23.90
2018-09-05T19:00:32.894Z,23.80
2018-09-05T19:03:41.152Z,23.80
2018-09-05T19:06:45.527Z,23.80
2018-09-05T19:09:50.451Z,23.70
2018-09-05T19:12:58.120Z,23.70
2018-09-05T19:16:02.514Z,23.70
2018-09-05T19:19:07.035Z,23.70
2018-09-05T19:22:11.533Z,23.70
2018-09-05T19:25:16.246Z,23.70
2018-09-05T19:28:20.382Z,23.60
2018-09-05T19:31:24.818Z,23.50
2018-09-05T19:34:29.052Z,23.50
2018-09-05T19:37:33.422Z,23.40
2018-09-05T19:40:38.475Z,23.40
2018-09-05T19:43:42.956Z,23.30
2018-09-05T19:46:47.909Z,23.20
2018-09-05T19:49:52.116Z,23.00
2018-09-05T19:52:56.573Z,22.90
2018-09-05T19:56:00.843Z,22.90
2018-09-05T19:59:06.864Z,22.90
2018-09-05T20:02:12.699Z,22.90
2018-09-05T20:05:17.658Z,22.90
2018-09-05T20:08:21.655Z,22.90
2018-09-05T20:11:25.940Z,22.90
2018-09-05T20:14:31.039Z,22.90
2018-09-05T20:17:35.185Z,22.90
2018-09-05T20:20:39.412Z,22.80
2018-09-05T20:23:44.293Z,22.70
2018-09-05T20:26:48.402Z,22.60
2018-09-05T20:29:52.788Z,22.60
2018-09-05T20:32:57.419Z,22.60
2018-09-05T20:36:01.919Z,22.50
2018-09-05T20:39:09.091Z,22.50
2018-09-05T20:42:13.612Z,22.50
2018-09-05T20:45:18.005Z,22.40
2018-09-05T20:48:22.522Z,22.30
2018-09-05T20:51:27.022Z,22.20
2018-09-05T20:54:31.457Z,22.20
2018-09-05T20:57:35.825Z,22.10
2018-09-05T21:00:40.192Z,22.00
2018-09-05T21:03:44.753Z,22.10
2018-09-05T21:06:49.883Z,22.00
2018-09-05T21:09:54.308Z,22.00
2018-09-05T21:12:59.147Z,21.90
2018-09-05T21:16:03.745Z,21.80
2018-09-05T21:19:08.127Z,21.70
2018-09-05T21:22:12.703Z,21.60
2018-09-05T21:25:17.154Z,21.50
2018-09-05T21:28:22.808Z,21.50
2018-09-05T21:31:27.242Z,21.30
2018-09-05T21:34:31.824Z,21.30
2018-09-05T21:37:36.109Z,21.30
2018-09-05T21:40:40.784Z,21.20
2018-09-05T21:43:46.093Z,21.20
2018-09-05T21:46:50.346Z,21.10
2018-09-05T21:49:54.739Z,21.00
2018-09-05T21:52:59.072Z,20.80
2018-09-05T21:56:03.593Z,20.80
2018-09-05T21:59:07.864Z,20.80
2018-09-05T22:02:12.594Z,20.70
2018-09-05T22:05:16.628Z,20.80
2018-09-05T22:08:21.536Z,20.70
2018-09-05T22:11:27.022Z,20.60
2018-09-05T22:14:31.210Z,20.50
2018-09-05T22:17:35.351Z,20.50
2018-09-05T22:20:39.804Z,20.60
2018-09-05T22:23:44.235Z,20.50
2018-09-05T22:26:48.636Z,20.40
2018-09-05T22:29:53.009Z,20.50
2018-09-05T22:32:57.300Z,20.40
2018-09-05T22:36:01.487Z,20.40
2018-09-05T22:39:07.149Z,20.40
2018-09-05T22:42:13.217Z,20.30
2018-09-05T22:45:28.280Z,20.20
2018-09-05T22:51:55.265Z,20.20
2018-09-05T22:55:14.274Z,20.20
2018-09-05T22:58:37.578Z,20.00
2018-09-05T23:02:50.786Z,20.00
2018-09-05T23:06:16.387Z,20.10
2018-09-05T23:09:31.113Z,20.10
2018-09-05T23:12:45.901Z,20.10
2018-09-05T23:16:00.739Z,20.10
2018-09-05T23:19:44.834Z,20.10
2018-09-05T23:22:59.912Z,20.10
2018-09-05T23:26:04.274Z,20.00
2018-09-05T23:29:08.546Z,20.00
2018-09-05T23:32:12.886Z,20.00
2018-09-05T23:35:17.187Z,19.90
2018-09-05T23:38:21.532Z,19.80
2018-09-05T23:41:25.890Z,19.60
2018-09-05T23:44:30.166Z,19.50
2018-09-05T23:47:34.527Z,19.40
2018-09-05T23:50:38.819Z,19.40
2018-09-05T23:53:43.131Z,19.20
2018-09-05T23:56:47.790Z,19.20
2018-09-05T23:59:52.179Z,19.10
